Nerchinskij Zavod, Russia
Current Conditions -  °F | °C
As of 6:30 PM on Monday 24 Nov 2014 (Local Time) from UIAA Reporting Station
Overcast Overcast  
Wind Chill:   Ceiling: 20000
Heat Index:   Visibility: 6mi
Dew Point: -2°   Wind: 2mph
Humidity: 78%   Direction: NA
Pressure: 29.71"   Gusts: NA
Location:  51.32°N, 119.62°E
Report Text: UIAA 240930Z VRB01MPS 9000 SCT100 OVC200 M16/M19 Q1006 NOSIGRMK QFE697 29CLRD70
Loading
Personal Weather Stations






























Interactive Weather Map New forecast layout! Learn more

10-Day Weather Forecast

Advertisements
Track Severe Weather on mobile